Impacts TAF Board
For situational awareness. Not to be used for flight planning purposes.
IDs:

KBTR - Baton Rouge/Ryan Fld, LA, US

Issued at 1123 UTC 23 Sep 2020
Updated at 1704 UTC 23 Sep 2020
Potential Impact None Slight Moderate High
Time1653Z 23/18Z 23/19Z 23/20Z 23/21Z 23/22Z 23/23Z 24/00Z 24/01Z 24/02Z 24/03Z 24/04Z 24/05Z 24/06Z>>
Type OBS PRVL PRVL PRVL PRVL PRVL PRVL PRVL PRVL PRVL PRVL PRVL PRVL PRVL
VIS 5 5 5 5 5 5 5 5 5 5 >6 >6 >6 >6
CIG 7 20 20 20 20 20 20 20 20 20 10 10 10 8
Cover BKN BKN BKN BKN BKN BKN BKN BKN BKN BKN BKN BKN BKN BKN
FltCat IFR MVFR MVFR MVFR MVFR MVFR MVFR MVFR MVFR MVFR MVFR MVFR MVFR IFR
WX -RA BR SHRA BR VCTS SHRA BR VCTS SHRA BR VCTS SHRA BR VCTS SHRA BR VCTS SHRA BR VCTS SHRA BR VCTS SHRA BR VCTS SHRA BR VCTS VCSH VCSH VCSH --
WDir 120 120 120 120 120 120 120 120 120 120 130 130 130 160
WSpd 11 11 11 11 11 11 11 11 11 11 10 10 10 9
WGst -- -- -- -- -- -- -- -- -- -- -- -- -- --
R04/22
XWnd -11 -11 -11 -11 -11 -11 -11 -11 -11 -11 -10 -10 -10 -8
HWnd 2 2 2 2 2 2 2 2 2 2 1 1 1 -4
R13/31
XWnd 2 2 2 2 2 2 2 2 2 2 1 1 1 -4
HWnd 11 11 11 11 11 11 11 11 11 11 10 10 10 8
Raw TAF
KBTR 231123Z 2312/2412 10009KT P6SM VCSH BKN015
  FM231800 12011KT 5SM SHRA BR VCTS BKN020CB
  FM240300 13010KT P6SM VCSH BKN010
  FM240600 16009KT P6SM BKN008


Raw METAR
KBTR 231653Z 12011KT 5SM -RA BR BKN007 24/23 A2986 RMK AO2 RAB11E20B37 SLP112 P0000 T02440228
KBTR 231556Z 10013KT 10SM BKN007 24/23 A2987 RMK AO2 T02440233
KBTR 231553Z COR 12011KT 10SM BKN007 24/23 A2987 RMK AO2 RAE37 SLP115 P0004 T02440233
KBTR 231453Z 09009KT 8SM -RA OVC007 22/22 A2988 RMK AO2 SLP117 P0021 60050 T02220217 50003
KBTR 231433Z VRB04KT 5SM +RA BR BKN005 OVC044 22/21 A2989 RMK AO2 LTG DSNT N P0019 T02170211

METAR Board
Radar Display
Forecast Discussion
For situational awareness. Not to be used for flight planning purposes.